createdAt,value
2019-04-06T00:00:11.557Z,8.07
2019-04-06T00:02:40.673Z,7.50
2019-04-06T00:05:10.047Z,7.80
2019-04-06T00:07:39.106Z,8.40
2019-04-06T00:10:09.101Z,6.70
2019-04-06T00:12:38.148Z,9.93
2019-04-06T00:15:07.496Z,8.07
2019-04-06T00:17:36.573Z,8.40
2019-04-06T00:20:06.676Z,7.93
2019-04-06T00:22:35.679Z,6.73
2019-04-06T00:25:05.135Z,8.60
2019-04-06T00:27:34.209Z,8.77
2019-04-06T00:30:03.461Z,8.10
2019-04-06T00:32:40.144Z,7.07
2019-04-06T00:35:09.397Z,7.17
2019-04-06T00:37:38.347Z,6.93
2019-04-06T00:40:07.809Z,8.80
2019-04-06T00:42:36.805Z,8.73
2019-04-06T00:45:06.579Z,7.60
2019-04-06T00:47:35.657Z,8.40
2019-04-06T00:50:05.258Z,6.60
2019-04-06T00:52:34.257Z,8.20
2019-04-06T00:55:03.272Z,8.60
2019-04-06T00:57:32.340Z,7.43
2019-04-06T01:00:01.733Z,7.57
2019-04-06T01:02:30.740Z,6.27
2019-04-06T01:04:59.801Z,6.73
2019-04-06T01:07:29.078Z,7.07
2019-04-06T01:09:58.067Z,6.43
2019-04-06T01:12:27.147Z,6.57
2019-04-06T01:14:56.207Z,6.93
2019-04-06T01:17:25.277Z,5.70
2019-04-06T01:19:54.259Z,6.97
2019-04-06T01:22:23.331Z,8.53
2019-04-06T01:24:52.312Z,8.33
2019-04-06T01:27:21.500Z,7.97
2019-04-06T01:29:50.440Z,8.50
2019-04-06T01:32:19.457Z,9.10
2019-04-06T01:34:48.491Z,10.77
2019-04-06T01:37:17.563Z,9.43
2019-04-06T01:39:46.553Z,12.33
2019-04-06T01:42:21.163Z,11.33
2019-04-06T01:44:50.221Z,11.73
2019-04-06T01:47:19.299Z,10.13
2019-04-06T01:49:48.281Z,7.83
2019-04-06T01:52:17.281Z,7.37
2019-04-06T01:54:46.366Z,10.83
2019-04-06T01:57:15.477Z,7.90
2019-04-06T01:59:44.481Z,8.73
2019-04-06T02:02:23.865Z,9.50
2019-04-06T02:04:52.841Z,6.97
2019-04-06T02:07:21.928Z,11.70
2019-04-06T02:09:50.903Z,8.03
2019-04-06T02:12:20.079Z,8.10
2019-04-06T02:14:49.186Z,7.03
2019-04-06T02:17:18.271Z,6.83
2019-04-06T02:19:47.306Z,6.40
2019-04-06T02:22:16.383Z,8.13
2019-04-06T02:24:45.420Z,6.80
2019-04-06T02:27:14.507Z,8.73
2019-04-06T02:29:44.042Z,5.47
2019-04-06T02:32:21.908Z,6.53
2019-04-06T02:35:08.953Z,6.93
2019-04-06T02:37:47.997Z,8.77
2019-04-06T02:40:23.800Z,7.40
2019-04-06T02:42:57.662Z,7.83
2019-04-06T02:45:26.830Z,7.17
2019-04-06T02:47:55.790Z,7.53
2019-04-06T02:50:24.861Z,6.77
2019-04-06T02:52:53.869Z,8.03
2019-04-06T02:55:22.952Z,9.93
2019-04-06T02:57:52.023Z,10.03
2019-04-06T03:00:21.193Z,9.00
2019-04-06T03:02:50.337Z,7.83
2019-04-06T03:05:19.386Z,8.80
2019-04-06T03:07:48.674Z,7.23
2019-04-06T03:10:17.969Z,5.97
2019-04-06T03:12:47.170Z,8.67
2019-04-06T03:15:16.189Z,8.13
2019-04-06T03:17:45.278Z,8.03
2019-04-06T03:20:15.153Z,6.50
2019-04-06T03:22:44.215Z,7.27
2019-04-06T03:25:13.638Z,6.73
2019-04-06T03:27:42.892Z,7.23
2019-04-06T03:30:12.006Z,7.87
2019-04-06T03:32:41.238Z,8.00
2019-04-06T03:35:10.402Z,7.20
2019-04-06T03:37:39.472Z,8.43
2019-04-06T03:40:08.627Z,8.47
2019-04-06T03:42:37.858Z,9.07
2019-04-06T03:45:08.112Z,9.80
2019-04-06T03:47:37.184Z,7.97
2019-04-06T03:50:07.359Z,9.53
2019-04-06T03:52:36.454Z,7.37
2019-04-06T03:55:06.805Z,7.93
2019-04-06T03:57:36.209Z,10.10
2019-04-06T04:00:06.275Z,8.13
2019-04-06T04:02:35.365Z,7.73
2019-04-06T04:05:04.501Z,7.70
2019-04-06T04:07:33.517Z,7.57
2019-04-06T04:10:02.845Z,6.77
2019-04-06T04:12:32.034Z,7.80
2019-04-06T04:15:01.024Z,9.30
2019-04-06T04:17:30.100Z,7.70
2019-04-06T04:19:59.148Z,6.80
2019-04-06T04:22:28.234Z,8.83
2019-04-06T04:24:57.323Z,11.43
2019-04-06T04:27:29.888Z,9.00
2019-04-06T04:29:57.096Z,6.30
2019-04-06T04:32:26.098Z,6.80
2019-04-06T04:34:55.152Z,8.97
2019-04-06T04:37:24.232Z,11.03
2019-04-06T04:39:53.399Z,8.77
2019-04-06T04:42:22.467Z,7.77
2019-04-06T04:44:51.542Z,8.10
2019-04-06T04:47:20.701Z,6.17
2019-04-06T04:49:49.749Z,9.63
2019-04-06T04:52:18.802Z,6.87
2019-04-06T04:54:47.751Z,7.77
2019-04-06T04:57:16.726Z,6.90
2019-04-06T04:59:45.825Z,6.37
2019-04-06T05:02:14.878Z,6.23
2019-04-06T05:04:43.791Z,4.80
2019-04-06T05:07:13.006Z,5.60
2019-04-06T05:09:42.237Z,4.80
2019-04-06T05:12:11.232Z,5.20
2019-04-06T05:15:01.240Z,3.47
2019-04-06T05:17:30.523Z,3.87
2019-04-06T05:20:00.143Z,6.40
2019-04-06T05:22:29.218Z,4.47
2019-04-06T05:24:58.296Z,7.03
2019-04-06T05:27:27.362Z,7.00
2019-04-06T05:29:56.502Z,8.87
2019-04-06T05:32:25.574Z,8.13
2019-04-06T05:34:54.743Z,5.80
2019-04-06T05:37:23.795Z,5.93
2019-04-06T05:39:52.884Z,5.20
2019-04-06T05:42:21.930Z,7.70
2019-04-06T05:44:50.929Z,9.07
2019-04-06T05:47:19.993Z,16.07
2019-04-06T05:49:48.993Z,11.60
2019-04-06T05:52:18.184Z,9.97
2019-04-06T05:54:47.244Z,10.27
2019-04-06T05:57:16.308Z,12.90
2019-04-06T05:59:45.395Z,17.30
2019-04-06T06:02:14.454Z,12.07
2019-04-06T06:04:43.540Z,20.07
2019-04-06T06:07:12.647Z,25.80
2019-04-06T06:09:41.695Z,18.43
2019-04-06T06:12:12.444Z,20.57
2019-04-06T06:14:41.537Z,14.87
2019-04-06T06:17:10.522Z,20.40
2019-04-06T06:19:39.600Z,21.63
2019-04-06T06:22:08.664Z,19.40
2019-04-06T06:24:37.915Z,13.77
2019-04-06T06:27:06.970Z,11.90
2019-04-06T06:29:36.049Z,12.87
2019-04-06T06:32:05.631Z,13.23
2019-04-06T06:34:34.712Z,14.03
2019-04-06T06:37:03.854Z,14.50
2019-04-06T06:39:32.917Z,10.73
2019-04-06T06:42:01.976Z,26.13
2019-04-06T06:44:30.990Z,25.87
2019-04-06T06:47:00.088Z,31.30
2019-04-06T06:49:29.170Z,14.33
2019-04-06T06:51:58.226Z,13.67
2019-04-06T06:54:27.442Z,8.63
2019-04-06T06:56:56.492Z,10.10
2019-04-06T06:59:25.650Z,11.00
2019-04-06T07:01:54.724Z,39.30
2019-04-06T07:04:23.965Z,24.90
2019-04-06T07:06:52.989Z,24.23
2019-04-06T07:09:22.131Z,37.33
2019-04-06T07:11:51.191Z,23.80
2019-04-06T07:14:20.300Z,26.90
2019-04-06T07:16:49.292Z,17.83
2019-04-06T07:19:18.554Z,16.80
2019-04-06T07:21:47.563Z,37.10
2019-04-06T07:24:16.649Z,38.53
2019-04-06T07:26:45.713Z,46.47
2019-04-06T07:29:14.799Z,24.17
2019-04-06T07:31:43.886Z,17.97
2019-04-06T07:34:12.905Z,35.27
2019-04-06T07:36:42.263Z,32.67
2019-04-06T07:39:11.457Z,25.70
2019-04-06T07:41:40.709Z,18.73
2019-04-06T07:44:09.862Z,15.87
2019-04-06T07:46:38.896Z,15.40
2019-04-06T07:49:09.978Z,14.10
2019-04-06T07:51:38.723Z,12.83
2019-04-06T07:54:07.756Z,14.27
2019-04-06T07:56:36.801Z,9.73
2019-04-06T07:59:05.895Z,9.63
2019-04-06T08:01:34.949Z,7.07
2019-04-06T08:04:04.030Z,7.90
2019-04-06T08:06:33.024Z,7.57
2019-04-06T08:09:02.375Z,20.50
2019-04-06T08:11:31.447Z,11.37
2019-04-06T08:14:00.526Z,9.50
2019-04-06T08:16:29.578Z,8.23
2019-04-06T08:18:58.711Z,7.13
2019-04-06T08:21:27.968Z,10.57
2019-04-06T08:23:57.014Z,14.47
2019-04-06T08:26:26.090Z,24.63
2019-04-06T08:29:01.489Z,18.73
2019-04-06T08:31:25.744Z,12.90
2019-04-06T08:33:54.810Z,14.70
2019-04-06T08:36:23.894Z,15.80
2019-04-06T08:38:52.951Z,29.23
2019-04-06T08:41:22.059Z,24.50
2019-04-06T08:43:51.093Z,31.83
2019-04-06T08:46:20.183Z,16.57
2019-04-06T08:48:49.175Z,17.43
2019-04-06T08:51:18.255Z,17.10
2019-04-06T08:53:47.265Z,10.33
2019-04-06T08:56:16.353Z,25.70
2019-04-06T08:58:45.334Z,16.80
2019-04-06T09:01:14.429Z,13.87
2019-04-06T09:03:43.556Z,20.27
2019-04-06T09:06:12.599Z,17.63
2019-04-06T09:08:41.690Z,22.40
2019-04-06T09:11:10.777Z,13.00
2019-04-06T09:13:40.435Z,8.70
2019-04-06T09:16:09.732Z,21.50
2019-04-06T09:18:38.875Z,27.77
2019-04-06T09:21:07.960Z,25.30
2019-04-06T09:23:37.079Z,23.03
2019-04-06T09:26:06.289Z,28.43
2019-04-06T09:28:35.371Z,21.70
2019-04-06T09:31:04.470Z,24.50
2019-04-06T09:33:33.553Z,32.33
2019-04-06T09:36:02.688Z,25.00
2019-04-06T09:38:31.778Z,19.60
2019-04-06T09:41:00.990Z,16.40
2019-04-06T09:43:29.955Z,17.13
2019-04-06T09:46:24.188Z,20.90
2019-04-06T09:48:58.845Z,25.77
2019-04-06T09:51:53.040Z,20.50
2019-04-06T09:54:27.463Z,23.60
2019-04-06T09:57:04.663Z,24.50
2019-04-06T09:59:43.277Z,36.57
2019-04-06T10:02:24.672Z,38.60
2019-04-06T10:05:05.724Z,37.50
2019-04-06T10:07:44.860Z,34.07
2019-04-06T10:10:36.285Z,35.77
2019-04-06T10:13:37.169Z,36.07
2019-04-06T10:16:25.265Z,43.13
2019-04-06T10:19:01.401Z,35.20
2019-04-06T10:21:55.668Z,40.73
2019-04-06T10:24:55.858Z,42.00
2019-04-06T10:27:52.789Z,46.17
2019-04-06T10:30:40.349Z,41.47
2019-04-06T10:33:28.432Z,33.40
2019-04-06T10:36:25.342Z,35.67
2019-04-06T10:39:12.151Z,28.20
2019-04-06T10:42:03.216Z,33.30
2019-04-06T10:44:50.421Z,29.30
2019-04-06T10:47:33.370Z,29.90
2019-04-06T10:50:25.712Z,26.33
2019-04-06T10:53:39.669Z,28.53
2019-04-06T10:56:35.563Z,27.37
2019-04-06T10:59:30.768Z,25.63
2019-04-06T11:02:17.358Z,22.57
2019-04-06T11:05:05.559Z,19.53
2019-04-06T11:07:46.010Z,25.03
2019-04-06T11:10:37.319Z,23.70
2019-04-06T11:13:31.719Z,17.07
2019-04-06T11:16:12.470Z,16.07
2019-04-06T11:18:59.496Z,19.37
2019-04-06T11:21:57.650Z,17.87
2019-04-06T11:24:48.558Z,17.80
2019-04-06T11:27:54.961Z,17.47
2019-04-06T11:30:45.780Z,14.20
2019-04-06T11:33:32.861Z,10.43
2019-04-06T11:36:15.783Z,15.40
2019-04-06T11:39:05.343Z,14.57
2019-04-06T11:41:55.351Z,18.37
2019-04-06T11:44:43.684Z,14.67
2019-04-06T11:47:27.937Z,11.90
2019-04-06T11:50:13.904Z,9.60
2019-04-06T11:52:55.431Z,10.23
2019-04-06T11:55:37.717Z,7.50
2019-04-06T11:58:17.854Z,9.40
2019-04-06T12:00:55.578Z,8.63
2019-04-06T12:03:33.466Z,10.20
2019-04-06T12:06:21.712Z,11.37
2019-04-06T12:08:56.622Z,8.63
2019-04-06T12:11:36.063Z,9.33
2019-04-06T12:14:12.436Z,10.00
2019-04-06T12:16:53.429Z,8.27
2019-04-06T12:19:46.132Z,14.37
2019-04-06T12:22:37.025Z,13.13
2019-04-06T12:25:31.642Z,11.07
2019-04-06T12:28:09.586Z,13.53
2019-04-06T12:30:47.055Z,12.63
2019-04-06T12:33:33.727Z,13.13
2019-04-06T12:36:25.106Z,14.33
2019-04-06T12:38:59.709Z,17.53
2019-04-06T12:41:43.982Z,17.50
2019-04-06T12:44:32.076Z,13.97
2019-04-06T12:47:23.224Z,15.00
2019-04-06T12:50:09.305Z,14.70
2019-04-06T12:52:56.099Z,12.67
2019-04-06T12:55:43.138Z,12.90
2019-04-06T12:58:30.561Z,13.37
2019-04-06T13:01:27.501Z,10.17
2019-04-06T13:04:27.903Z,12.60
2019-04-06T13:07:17.954Z,13.47
2019-04-06T13:09:56.475Z,10.40
2019-04-06T13:12:50.551Z,11.00
2019-04-06T13:15:41.672Z,10.70
2019-04-06T13:18:23.004Z,7.80
2019-04-06T13:21:10.343Z,6.70
2019-04-06T13:23:47.422Z,13.77
2019-04-06T13:26:41.779Z,12.87
2019-04-06T13:29:26.686Z,10.60
2019-04-06T13:32:13.656Z,9.97
2019-04-06T13:34:48.626Z,11.47
2019-04-06T13:37:35.615Z,10.83
2019-04-06T13:40:30.161Z,13.47
2019-04-06T13:43:12.805Z,11.97
2019-04-06T13:46:00.886Z,12.73
2019-04-06T13:48:48.901Z,13.37
2019-04-06T13:51:39.955Z,11.23
2019-04-06T13:54:19.274Z,15.27
2019-04-06T13:57:02.723Z,15.63
2019-04-06T13:59:49.808Z,11.60
2019-04-06T14:02:36.582Z,15.70
2019-04-06T14:05:22.358Z,16.37
2019-04-06T14:08:22.997Z,15.53
2019-04-06T14:11:20.483Z,12.23
2019-04-06T14:14:07.752Z,11.83
2019-04-06T14:16:55.765Z,12.57
2019-04-06T14:19:42.383Z,11.93
2019-04-06T14:22:19.882Z,13.70
2019-04-06T14:24:59.016Z,18.33
2019-04-06T14:27:34.378Z,16.87
2019-04-06T14:30:15.658Z,12.23
2019-04-06T14:32:55.914Z,12.57
2019-04-06T14:35:42.548Z,12.40
2019-04-06T14:38:28.915Z,10.77
2019-04-06T14:41:16.716Z,13.20
2019-04-06T14:43:55.055Z,10.70
2019-04-06T14:46:46.384Z,10.40
2019-04-06T14:49:40.461Z,12.87
2019-04-06T14:52:15.493Z,12.07
2019-04-06T14:55:03.476Z,10.67
2019-04-06T14:57:50.387Z,9.17
2019-04-06T15:00:47.938Z,10.57
2019-04-06T15:03:32.572Z,13.43
2019-04-06T15:06:18.233Z,12.77
2019-04-06T15:09:21.507Z,9.50
2019-04-06T15:12:02.395Z,9.93
2019-04-06T15:14:53.794Z,9.10
2019-04-06T15:17:38.090Z,8.90
2019-04-06T15:20:17.504Z,10.13
2019-04-06T15:23:19.819Z,9.77
2019-04-06T15:26:07.935Z,10.43
2019-04-06T15:28:51.379Z,10.37
2019-04-06T15:31:32.590Z,11.27
2019-04-06T15:34:19.405Z,10.60
2019-04-06T15:37:06.752Z,9.00
2019-04-06T15:40:21.596Z,10.20
2019-04-06T15:42:59.863Z,10.20
2019-04-06T15:45:50.944Z,11.87
2019-04-06T15:48:48.332Z,11.20
2019-04-06T15:51:31.845Z,11.73
2019-04-06T15:54:19.957Z,10.63
2019-04-06T15:56:57.138Z,10.03
2019-04-06T15:59:54.116Z,9.70
2019-04-06T16:02:57.846Z,11.83
2019-04-06T16:05:32.259Z,11.57
2019-04-06T16:08:16.558Z,14.33
2019-04-06T16:11:06.071Z,11.70
2019-04-06T16:13:54.041Z,12.53
2019-04-06T16:16:30.286Z,11.60
2019-04-06T16:19:24.483Z,10.03
2019-04-06T16:22:21.837Z,10.30
2019-04-06T16:24:59.138Z,8.07
2019-04-06T16:27:46.050Z,8.33
2019-04-06T16:30:34.469Z,9.90
2019-04-06T16:33:12.720Z,9.90
2019-04-06T16:36:03.673Z,9.57
2019-04-06T16:38:50.740Z,10.83
2019-04-06T16:41:38.744Z,9.03
2019-04-06T16:44:16.875Z,7.87
2019-04-06T16:46:57.057Z,10.57
2019-04-06T16:49:44.355Z,6.57
2019-04-06T16:52:31.818Z,7.83
2019-04-06T16:55:13.368Z,6.33
2019-04-06T16:57:59.216Z,6.97
2019-04-06T17:00:50.151Z,6.40
2019-04-06T17:03:35.752Z,7.53
2019-04-06T17:06:15.941Z,5.17
2019-04-06T17:09:01.588Z,5.17
2019-04-06T17:11:59.250Z,4.20
2019-04-06T17:14:54.994Z,4.97
2019-04-06T17:17:32.547Z,4.30
2019-04-06T17:20:23.369Z,3.00
2019-04-06T17:23:14.458Z,3.27
2019-04-06T17:25:52.362Z,2.93
2019-04-06T17:28:34.178Z,2.53
2019-04-06T17:31:16.312Z,3.40
2019-04-06T17:34:10.178Z,3.30
2019-04-06T17:36:49.172Z,3.07
2019-04-06T17:39:37.311Z,4.40
2019-04-06T17:42:19.099Z,3.30
2019-04-06T17:45:13.770Z,3.23
2019-04-06T17:48:04.954Z,3.20
2019-04-06T17:50:46.651Z,2.97
2019-04-06T17:53:23.781Z,3.00
2019-04-06T17:56:10.573Z,3.17
2019-04-06T17:59:01.891Z,4.90
2019-04-06T18:01:46.069Z,4.87
2019-04-06T18:04:37.214Z,5.63
2019-04-06T18:07:32.689Z,4.63
2019-04-06T18:10:33.392Z,4.33
2019-04-06T18:13:27.546Z,4.47
2019-04-06T18:15:56.797Z,4.53
2019-04-06T18:18:25.775Z,4.13
2019-04-06T18:20:55.100Z,3.47
2019-04-06T18:23:24.515Z,3.20
2019-04-06T18:25:53.616Z,4.13
2019-04-06T18:28:22.670Z,3.80
2019-04-06T18:30:59.654Z,4.10
2019-04-06T18:33:28.727Z,6.33
2019-04-06T18:35:57.797Z,4.40
2019-04-06T18:38:38.695Z,6.03
2019-04-06T18:41:07.969Z,5.50
2019-04-06T18:43:37.323Z,6.20
2019-04-06T18:46:06.748Z,6.80
2019-04-06T18:48:35.845Z,4.20
2019-04-06T18:51:05.831Z,3.87
2019-04-06T18:53:35.331Z,3.40
2019-04-06T18:56:04.429Z,3.00
2019-04-06T18:58:33.509Z,3.40
2019-04-06T19:01:02.639Z,3.17
2019-04-06T19:03:32.225Z,3.50
2019-04-06T19:06:01.371Z,3.90
2019-04-06T19:08:30.848Z,5.10
2019-04-06T19:11:00.087Z,3.70
2019-04-06T19:13:29.575Z,4.20
2019-04-06T19:15:58.772Z,5.10
2019-04-06T19:18:27.943Z,3.73
2019-04-06T19:20:57.484Z,3.93
2019-04-06T19:23:26.469Z,3.57
2019-04-06T19:25:55.539Z,3.60
2019-04-06T19:28:24.856Z,3.13
2019-04-06T19:30:54.039Z,3.60
2019-04-06T19:33:25.636Z,3.33
2019-04-06T19:35:53.824Z,3.23
2019-04-06T19:38:23.362Z,2.90
2019-04-06T19:40:52.968Z,3.57
2019-04-06T19:43:22.172Z,3.77
2019-04-06T19:45:51.329Z,4.10
2019-04-06T19:48:20.397Z,3.70
2019-04-06T19:50:49.868Z,4.00
2019-04-06T19:53:18.966Z,5.53
2019-04-06T19:55:48.066Z,4.67
2019-04-06T19:58:17.115Z,4.17
2019-04-06T20:00:46.222Z,4.23
2019-04-06T20:03:15.468Z,3.93
2019-04-06T20:05:44.534Z,4.60
2019-04-06T20:08:13.502Z,3.30
2019-04-06T20:10:43.074Z,4.97
2019-04-06T20:13:12.085Z,3.63
2019-04-06T20:15:41.204Z,3.73
2019-04-06T20:18:10.247Z,4.10
2019-04-06T20:20:39.174Z,3.80
2019-04-06T20:23:08.481Z,4.17
2019-04-06T20:25:37.649Z,3.93
2019-04-06T20:28:06.704Z,4.90
2019-04-06T20:30:35.627Z,3.20
2019-04-06T20:33:04.713Z,3.30
2019-04-06T20:35:33.705Z,3.80
2019-04-06T20:38:02.696Z,5.00
2019-04-06T20:40:31.763Z,6.30
2019-04-06T20:43:00.815Z,4.80
2019-04-06T20:45:30.065Z,5.03
2019-04-06T20:47:59.540Z,4.40
2019-04-06T20:50:28.744Z,5.20
2019-04-06T20:52:58.042Z,6.27
2019-04-06T20:55:28.102Z,4.50
2019-04-06T20:57:57.172Z,4.50
2019-04-06T21:00:26.766Z,6.70
2019-04-06T21:02:56.461Z,3.83
2019-04-06T21:05:25.718Z,4.20
2019-04-06T21:07:54.622Z,3.20
2019-04-06T21:10:23.615Z,3.53
2019-04-06T21:12:52.782Z,3.10
2019-04-06T21:15:21.858Z,3.20
2019-04-06T21:17:50.913Z,2.90
2019-04-06T21:20:19.983Z,3.83
2019-04-06T21:22:48.883Z,2.87
2019-04-06T21:25:17.956Z,2.40
2019-04-06T21:27:47.000Z,2.77
2019-04-06T21:30:16.086Z,2.43
2019-04-06T21:32:45.857Z,2.87
2019-04-06T21:35:16.346Z,2.70
2019-04-06T21:37:45.956Z,3.77
2019-04-06T21:40:15.836Z,5.70
2019-04-06T21:42:45.859Z,8.07
2019-04-06T21:45:15.278Z,5.60
2019-04-06T21:47:44.290Z,5.87
2019-04-06T21:50:13.713Z,6.67
2019-04-06T21:52:42.797Z,6.83
2019-04-06T21:55:13.991Z,4.83
2019-04-06T21:57:43.174Z,5.40
2019-04-06T22:00:15.230Z,6.13
2019-04-06T22:02:44.658Z,5.90
2019-04-06T22:05:13.954Z,5.63
2019-04-06T22:07:50.545Z,5.23
2019-04-06T22:10:13.977Z,4.13
2019-04-06T22:12:43.206Z,4.47
2019-04-06T22:15:13.991Z,3.50
2019-04-06T22:17:43.102Z,3.77
2019-04-06T22:20:12.440Z,3.37
2019-04-06T22:22:41.712Z,4.20
2019-04-06T22:25:11.162Z,5.03
2019-04-06T22:27:40.397Z,4.10
2019-04-06T22:30:10.327Z,3.33
2019-04-06T22:32:39.402Z,5.77
2019-04-06T22:35:09.079Z,3.60
2019-04-06T22:37:38.103Z,3.70
2019-04-06T22:40:07.643Z,4.40
2019-04-06T22:42:36.730Z,3.67
2019-04-06T22:45:07.129Z,5.63
2019-04-06T22:47:36.238Z,3.63
2019-04-06T22:50:06.073Z,4.20
2019-04-06T22:52:35.375Z,4.57
2019-04-06T22:55:05.074Z,3.87
2019-04-06T22:57:34.593Z,3.20
2019-04-06T23:00:04.569Z,3.27
2019-04-06T23:02:41.880Z,3.00
2019-04-06T23:05:18.893Z,3.00
2019-04-06T23:07:48.409Z,2.90
2019-04-06T23:10:18.469Z,2.80
2019-04-06T23:12:47.714Z,2.70
2019-04-06T23:15:16.766Z,2.73
2019-04-06T23:17:45.849Z,3.00
2019-04-06T23:20:15.043Z,3.43
2019-04-06T23:22:44.608Z,3.03
2019-04-06T23:25:14.915Z,3.00
2019-04-06T23:27:44.038Z,3.20
2019-04-06T23:30:13.195Z,3.30
2019-04-06T23:32:42.309Z,3.80
2019-04-06T23:35:11.377Z,3.53
2019-04-06T23:37:40.438Z,2.97
2019-04-06T23:40:09.928Z,3.00
2019-04-06T23:42:39.047Z,3.03
2019-04-06T23:45:08.108Z,2.80
2019-04-06T23:47:37.681Z,3.10
2019-04-06T23:50:06.871Z,2.60
2019-04-06T23:52:36.419Z,2.80
2019-04-06T23:55:05.829Z,3.63
2019-04-06T23:57:34.864Z,3.60
